createdAt,value
2019-01-25T00:01:00.668Z,-3.90
2019-01-25T00:02:06.906Z,-3.90
2019-01-25T00:03:11.714Z,-3.90
2019-01-25T00:04:16.351Z,-3.90
2019-01-25T00:05:21.049Z,-3.90
2019-01-25T00:06:25.688Z,-3.90
2019-01-25T00:07:30.424Z,-3.90
2019-01-25T00:08:35.068Z,-3.90
2019-01-25T00:09:40.651Z,-3.90
2019-01-25T00:10:45.298Z,-3.90
2019-01-25T00:11:49.974Z,-4.00
2019-01-25T00:12:54.625Z,-4.00
2019-01-25T00:13:59.222Z,-4.00
2019-01-25T00:15:05.314Z,-4.00
2019-01-25T00:16:10.116Z,-4.00
2019-01-25T00:17:14.817Z,-4.00
2019-01-25T00:18:19.606Z,-4.00
2019-01-25T00:19:24.206Z,-4.00
2019-01-25T00:20:28.955Z,-4.00
2019-01-25T00:21:33.531Z,-4.00
2019-01-25T00:22:38.207Z,-4.00
2019-01-25T00:23:42.822Z,-3.90
2019-01-25T00:24:47.512Z,-3.90
2019-01-25T00:25:52.164Z,-3.90
2019-01-25T00:26:56.814Z,-3.90
2019-01-25T00:28:01.430Z,-3.90
2019-01-25T00:29:06.176Z,-3.90
2019-01-25T00:30:12.460Z,-3.90
2019-01-25T00:31:17.327Z,-3.90
2019-01-25T00:32:21.930Z,-3.80
2019-01-25T00:33:27.130Z,-3.90
2019-01-25T00:34:31.746Z,-3.90
2019-01-25T00:35:36.423Z,-3.90
2019-01-25T00:36:41.065Z,-3.90
2019-01-25T00:37:45.846Z,-3.90
2019-01-25T00:38:50.445Z,-3.80
2019-01-25T00:39:55.073Z,-3.80
2019-01-25T00:40:59.791Z,-3.80
2019-01-25T00:42:04.599Z,-3.80
2019-01-25T00:43:09.456Z,-3.80
2019-01-25T00:44:14.155Z,-3.80
2019-01-25T00:45:18.956Z,-3.80
2019-01-25T00:46:23.659Z,-3.80
2019-01-25T00:47:28.647Z,-3.90
2019-01-25T00:48:33.372Z,-3.80
2019-01-25T00:49:38.081Z,-3.80
2019-01-25T00:50:42.766Z,-3.80
2019-01-25T00:51:47.364Z,-3.90
2019-01-25T00:52:52.098Z,-3.90
2019-01-25T00:53:56.810Z,-3.80
2019-01-25T00:55:01.400Z,-3.80
2019-01-25T00:56:06.667Z,-3.80
2019-01-25T00:57:11.270Z,-3.80
2019-01-25T00:58:15.921Z,-3.80
2019-01-25T00:59:20.602Z,-3.80
2019-01-25T01:00:26.208Z,-3.80
2019-01-25T01:01:30.973Z,-3.80
2019-01-25T01:02:35.674Z,-3.80
2019-01-25T01:03:40.286Z,-3.80
2019-01-25T01:04:44.985Z,-3.80
2019-01-25T01:05:49.562Z,-3.80
2019-01-25T01:06:54.309Z,-3.80
2019-01-25T01:07:58.898Z,-3.80
2019-01-25T01:09:04.810Z,-3.90
2019-01-25T01:10:14.181Z,-3.90
2019-01-25T01:11:17.271Z,-3.90
2019-01-25T01:12:21.924Z,-3.90
2019-01-25T01:13:26.606Z,-3.90
2019-01-25T01:14:31.178Z,-4.00
2019-01-25T01:15:35.783Z,-3.90
2019-01-25T01:16:40.509Z,-4.00
2019-01-25T01:17:45.314Z,-4.00
2019-01-25T01:18:49.971Z,-4.00
2019-01-25T01:19:54.702Z,-3.90
2019-01-25T01:20:59.263Z,-4.00
2019-01-25T01:22:04.158Z,-3.90
2019-01-25T01:23:08.821Z,-3.90
2019-01-25T01:24:13.430Z,-3.90
2019-01-25T01:25:18.198Z,-3.90
2019-01-25T01:26:22.819Z,-3.90
2019-01-25T01:27:27.459Z,-3.90
2019-01-25T01:28:32.038Z,-3.90
2019-01-25T01:29:36.671Z,-3.90
2019-01-25T01:30:41.283Z,-3.90
2019-01-25T01:31:45.987Z,-3.90
2019-01-25T01:32:51.447Z,-3.90
2019-01-25T01:33:56.186Z,-3.90
2019-01-25T01:35:00.906Z,-3.90
2019-01-25T01:36:05.615Z,-3.90
2019-01-25T01:37:10.231Z,-3.90
2019-01-25T01:38:14.864Z,-3.90
2019-01-25T01:39:19.474Z,-3.90
2019-01-25T01:40:25.491Z,-3.90
2019-01-25T01:41:30.115Z,-3.90
2019-01-25T01:42:34.718Z,-3.90
2019-01-25T01:43:39.309Z,-3.90
2019-01-25T01:44:43.984Z,-3.90
2019-01-25T01:45:48.601Z,-3.90
2019-01-25T01:46:53.270Z,-3.90
2019-01-25T01:47:57.874Z,-3.90
2019-01-25T01:49:02.447Z,-3.90
2019-01-25T01:50:08.872Z,-3.90
2019-01-25T01:51:13.513Z,-3.80
2019-01-25T01:52:18.232Z,-3.80
2019-01-25T01:53:22.909Z,-3.80
2019-01-25T01:54:27.502Z,-3.80
2019-01-25T01:55:32.147Z,-3.80
2019-01-25T01:56:36.748Z,-3.80
2019-01-25T01:57:41.539Z,-3.80
2019-01-25T01:58:46.106Z,-3.80
2019-01-25T01:59:50.739Z,-3.70
2019-01-25T02:00:56.378Z,-3.80
2019-01-25T02:02:01.087Z,-3.80
2019-01-25T02:03:05.808Z,-3.70
2019-01-25T02:04:10.515Z,-3.70
2019-01-25T02:05:15.495Z,-3.70
2019-01-25T02:06:20.109Z,-3.70
2019-01-25T02:07:24.916Z,-3.70
2019-01-25T02:08:29.482Z,-3.70
2019-01-25T02:09:34.230Z,-3.70
2019-01-25T02:10:38.800Z,-3.70
2019-01-25T02:11:43.560Z,-3.70
2019-01-25T02:12:48.356Z,-3.80
2019-01-25T02:13:52.979Z,-3.70
2019-01-25T02:14:57.602Z,-3.80
2019-01-25T02:16:02.211Z,-3.70
2019-01-25T02:17:06.827Z,-3.70
2019-01-25T02:18:11.551Z,-3.70
2019-01-25T02:19:16.158Z,-3.70
2019-01-25T02:20:23.225Z,-3.70
2019-01-25T02:21:27.859Z,-3.70
2019-01-25T02:22:32.523Z,-3.60
2019-01-25T02:23:37.226Z,-3.70
2019-01-25T02:24:41.895Z,-3.70
2019-01-25T02:25:46.572Z,-3.70
2019-01-25T02:26:51.183Z,-3.70
2019-01-25T02:27:55.899Z,-3.70
2019-01-25T02:29:00.517Z,-3.80
2019-01-25T02:30:06.513Z,-3.80
2019-01-25T02:31:11.230Z,-3.80
2019-01-25T02:32:15.841Z,-3.80
2019-01-25T02:33:20.548Z,-3.80
2019-01-25T02:34:25.164Z,-3.80
2019-01-25T02:35:29.832Z,-3.80
2019-01-25T02:36:34.550Z,-3.70
2019-01-25T02:37:39.186Z,-3.70
2019-01-25T02:38:43.834Z,-3.70
2019-01-25T02:39:48.479Z,-3.70
2019-01-25T02:40:53.077Z,-3.70
2019-01-25T02:41:57.790Z,-3.70
2019-01-25T02:43:02.378Z,-3.70
2019-01-25T02:44:07.041Z,-3.70
2019-01-25T02:45:12.300Z,-3.70
2019-01-25T02:46:16.962Z,-3.70
2019-01-25T02:47:21.607Z,-3.70
2019-01-25T02:48:26.219Z,-3.70
2019-01-25T02:49:30.940Z,-3.70
2019-01-25T02:50:35.711Z,-3.70
2019-01-25T02:51:40.339Z,-3.70
2019-01-25T02:52:45.035Z,-3.70
2019-01-25T02:53:49.755Z,-3.70
2019-01-25T02:54:54.446Z,-3.80
2019-01-25T02:55:59.123Z,-3.70
2019-01-25T02:57:03.784Z,-3.80
2019-01-25T02:58:08.427Z,-3.80
2019-01-25T02:59:13.034Z,-3.80
2019-01-25T03:00:19.593Z,-3.90
2019-01-25T03:01:24.291Z,-3.90
2019-01-25T03:02:28.922Z,-3.90
2019-01-25T03:03:33.546Z,-3.80
2019-01-25T03:04:38.124Z,-3.80
2019-01-25T03:05:43.811Z,-3.90
2019-01-25T03:06:48.410Z,-3.90
2019-01-25T03:07:53.251Z,-3.80
2019-01-25T03:08:57.899Z,-3.80
2019-01-25T03:10:02.494Z,-3.80
2019-01-25T03:11:08.086Z,-3.80
2019-01-25T03:12:12.775Z,-3.80
2019-01-25T03:13:17.359Z,-3.80
2019-01-25T03:14:21.990Z,-3.70
2019-01-25T03:15:27.066Z,-3.80
2019-01-25T03:16:31.684Z,-3.80
2019-01-25T03:17:36.261Z,-3.80
2019-01-25T03:18:40.879Z,-3.80
2019-01-25T03:19:45.523Z,-3.80
2019-01-25T03:20:50.197Z,-3.90
2019-01-25T03:21:54.771Z,-3.90
2019-01-25T03:22:59.408Z,-3.90
2019-01-25T03:24:04.270Z,-3.90
2019-01-25T03:25:10.906Z,-3.90
2019-01-25T03:26:15.739Z,-3.80
2019-01-25T03:27:20.392Z,-3.80
2019-01-25T03:28:25.046Z,-3.80
2019-01-25T03:29:29.640Z,-3.80
2019-01-25T03:30:34.431Z,-3.80
2019-01-25T03:31:39.047Z,-3.80
2019-01-25T03:32:43.742Z,-3.80
2019-01-25T03:33:48.322Z,-3.80
2019-01-25T03:34:53.074Z,-3.80
2019-01-25T03:35:57.699Z,-3.70
2019-01-25T03:37:02.307Z,-3.80
2019-01-25T03:38:07.269Z,-3.80
2019-01-25T03:39:12.149Z,-3.80
2019-01-25T03:40:18.951Z,-3.80
2019-01-25T03:41:23.756Z,-3.80
2019-01-25T03:42:28.419Z,-3.80
2019-01-25T03:43:33.492Z,-3.80
2019-01-25T03:44:38.127Z,-3.70
2019-01-25T03:45:42.763Z,-3.70
2019-01-25T03:46:47.429Z,-3.70
2019-01-25T03:47:52.210Z,-3.70
2019-01-25T03:48:56.845Z,-3.70
2019-01-25T03:50:01.558Z,-3.60
2019-01-25T03:51:06.404Z,-3.60
2019-01-25T03:52:11.038Z,-3.60
2019-01-25T03:53:15.638Z,-3.60
2019-01-25T03:54:20.215Z,-3.60
2019-01-25T03:55:25.030Z,-3.60
2019-01-25T03:56:29.735Z,-3.70
2019-01-25T03:57:44.687Z,-3.70
2019-01-25T03:58:49.270Z,-3.70
2019-01-25T03:59:53.918Z,-3.80
2019-01-25T04:00:58.541Z,-3.80
2019-01-25T04:02:03.216Z,-3.80
2019-01-25T04:03:07.991Z,-3.80
2019-01-25T04:04:12.670Z,-3.80
2019-01-25T04:05:17.574Z,-3.80
2019-01-25T04:06:22.282Z,-3.80
2019-01-25T04:07:26.871Z,-3.80
2019-01-25T04:08:31.510Z,-3.80
2019-01-25T04:09:36.122Z,-3.80
2019-01-25T04:10:40.715Z,-3.90
2019-01-25T04:11:45.355Z,-3.90
2019-01-25T04:12:50.121Z,-3.90
2019-01-25T04:13:54.743Z,-3.80
2019-01-25T04:14:59.320Z,-3.80
2019-01-25T04:16:04.589Z,-3.70
2019-01-25T04:17:09.275Z,-3.70
2019-01-25T04:18:13.863Z,-3.70
2019-01-25T04:19:18.468Z,-3.70
2019-01-25T04:20:23.606Z,-3.70
2019-01-25T04:21:28.325Z,-3.70
2019-01-25T04:22:32.974Z,-3.70
2019-01-25T04:23:37.715Z,-3.70
2019-01-25T04:24:42.422Z,-3.70
2019-01-25T04:25:47.006Z,-3.70
2019-01-25T04:26:51.680Z,-3.70
2019-01-25T04:27:56.281Z,-3.70
2019-01-25T04:29:01.288Z,-3.80
2019-01-25T04:30:07.937Z,-3.80
2019-01-25T04:31:12.538Z,-3.70
2019-01-25T04:32:17.417Z,-3.70
2019-01-25T04:33:22.124Z,-3.80
2019-01-25T04:34:26.729Z,-3.70
2019-01-25T04:35:31.358Z,-3.80
2019-01-25T04:36:36.043Z,-3.70
2019-01-25T04:37:40.767Z,-3.70
2019-01-25T04:38:45.938Z,-3.70
2019-01-25T04:39:50.566Z,-3.70
2019-01-25T04:40:55.273Z,-3.70
2019-01-25T04:42:01.171Z,-3.70
2019-01-25T04:43:06.020Z,-3.70
2019-01-25T04:44:11.036Z,-3.70
2019-01-25T04:45:18.892Z,-3.70
2019-01-25T04:46:23.522Z,-3.70
2019-01-25T04:47:30.511Z,-3.70
2019-01-25T04:48:35.627Z,-3.70
2019-01-25T04:49:40.771Z,-3.70
2019-01-25T04:50:45.558Z,-3.70
2019-01-25T04:51:50.333Z,-3.70
2019-01-25T04:52:55.427Z,-3.70
2019-01-25T04:54:00.054Z,-3.70
2019-01-25T04:55:22.302Z,-3.70
2019-01-25T04:56:26.952Z,-3.70
2019-01-25T04:57:31.567Z,-3.70
2019-01-25T04:58:36.330Z,-3.70
2019-01-25T04:59:41.558Z,-3.70
2019-01-25T05:00:46.525Z,-3.70
2019-01-25T05:01:52.211Z,-3.70
2019-01-25T05:02:58.614Z,-3.70
2019-01-25T05:04:03.810Z,-3.70
2019-01-25T05:05:09.567Z,-3.70
2019-01-25T05:06:18.378Z,-3.70
2019-01-25T05:07:24.287Z,-3.80
2019-01-25T05:08:28.958Z,-3.80
2019-01-25T05:09:38.355Z,-3.80
2019-01-25T05:10:43.391Z,-3.80
2019-01-25T05:11:48.102Z,-3.70
2019-01-25T05:12:53.489Z,-3.70
2019-01-25T05:13:58.245Z,-3.70
2019-01-25T05:15:02.847Z,-3.60
2019-01-25T05:16:12.473Z,-3.70
2019-01-25T05:17:20.964Z,-3.70
2019-01-25T05:18:25.666Z,-3.70
2019-01-25T05:19:37.925Z,-3.70
2019-01-25T05:20:42.950Z,-3.70
2019-01-25T05:21:49.088Z,-3.80
2019-01-25T05:22:56.428Z,-3.80
2019-01-25T05:24:09.135Z,-3.80
2019-01-25T05:25:19.185Z,-3.80
2019-01-25T05:26:24.499Z,-3.80
2019-01-25T05:27:29.688Z,-3.70
2019-01-25T05:28:37.571Z,-3.70
2019-01-25T05:29:50.854Z,-3.70
2019-01-25T05:31:07.078Z,-3.80
2019-01-25T05:32:12.049Z,-3.80
2019-01-25T05:33:17.906Z,-3.90
2019-01-25T05:34:22.631Z,-3.90
2019-01-25T05:35:33.949Z,-3.90
2019-01-25T05:36:38.884Z,-3.90
2019-01-25T05:37:43.531Z,-3.90
2019-01-25T05:38:48.693Z,-3.80
2019-01-25T05:39:53.393Z,-3.80
2019-01-25T05:40:58.065Z,-3.80
2019-01-25T05:42:03.116Z,-3.80
2019-01-25T05:43:07.767Z,-3.80
2019-01-25T05:44:12.424Z,-3.80
2019-01-25T05:45:21.669Z,-3.80
2019-01-25T05:46:26.862Z,-3.80
2019-01-25T05:47:38.950Z,-3.80
2019-01-25T05:48:50.663Z,-3.80
2019-01-25T05:49:56.219Z,-3.90
2019-01-25T05:51:05.574Z,-3.80
2019-01-25T05:52:17.187Z,-3.90
2019-01-25T05:53:24.289Z,-3.90
2019-01-25T05:54:29.250Z,-3.90
2019-01-25T05:55:36.194Z,-3.90
2019-01-25T05:56:44.207Z,-3.90
2019-01-25T05:57:52.758Z,-3.90
2019-01-25T05:58:58.091Z,-3.90
2019-01-25T06:00:05.870Z,-3.80
2019-01-25T06:01:10.681Z,-3.80
2019-01-25T06:02:15.884Z,-3.80
2019-01-25T06:03:21.289Z,-3.80
2019-01-25T06:04:32.867Z,-3.80
2019-01-25T06:05:37.668Z,-3.70
2019-01-25T06:06:42.335Z,-3.70
2019-01-25T06:07:47.101Z,-3.70
2019-01-25T06:08:51.866Z,-3.70
2019-01-25T06:09:56.530Z,-3.60
2019-01-25T06:11:19.699Z,-3.60
2019-01-25T06:12:24.364Z,-3.60
2019-01-25T06:13:29.173Z,-3.60
2019-01-25T06:14:33.903Z,-3.60
2019-01-25T06:15:38.770Z,-3.60
2019-01-25T06:16:43.519Z,-3.50
2019-01-25T06:17:48.341Z,-3.50
2019-01-25T06:18:53.359Z,-3.50
2019-01-25T06:19:58.195Z,-3.50
2019-01-25T06:21:03.171Z,-3.50
2019-01-25T06:22:08.067Z,-3.50
2019-01-25T06:23:13.282Z,-3.50
2019-01-25T06:24:18.342Z,-3.50
2019-01-25T06:25:23.128Z,-3.50
2019-01-25T06:26:27.816Z,-3.50
2019-01-25T06:27:37.339Z,-3.50
2019-01-25T06:28:52.910Z,-3.50
2019-01-25T06:29:59.294Z,-3.50
2019-01-25T06:31:03.983Z,-3.50
2019-01-25T06:32:09.325Z,-3.50
2019-01-25T06:33:18.352Z,-3.50
2019-01-25T06:34:23.378Z,-3.50
2019-01-25T06:35:28.414Z,-3.50
2019-01-25T06:36:34.667Z,-3.50
2019-01-25T06:37:39.352Z,-3.50
2019-01-25T06:38:44.184Z,-3.50
2019-01-25T06:39:48.851Z,-3.50
2019-01-25T06:40:53.539Z,-3.50
2019-01-25T06:41:58.864Z,-3.50
2019-01-25T06:43:04.323Z,-3.50
2019-01-25T06:44:08.978Z,-3.50
2019-01-25T06:45:13.772Z,-3.40
2019-01-25T06:46:18.348Z,-3.40
2019-01-25T06:47:22.997Z,-3.40
2019-01-25T06:48:27.777Z,-3.40
2019-01-25T06:49:32.446Z,-3.40
2019-01-25T06:50:37.130Z,-3.40
2019-01-25T06:51:41.767Z,-3.40
2019-01-25T06:52:46.476Z,-3.40
2019-01-25T06:53:51.205Z,-3.30
2019-01-25T06:54:55.821Z,-3.40
2019-01-25T06:56:00.471Z,-3.40
2019-01-25T06:57:13.888Z,-3.40
2019-01-25T06:58:25.161Z,-3.40
2019-01-25T06:59:38.542Z,-3.40
2019-01-25T07:00:48.675Z,-3.40
2019-01-25T07:02:07.383Z,-3.40
2019-01-25T07:03:12.238Z,-3.40
2019-01-25T07:04:16.966Z,-3.40
2019-01-25T07:05:21.944Z,-3.40
2019-01-25T07:06:26.762Z,-3.40
2019-01-25T07:07:33.219Z,-3.40
2019-01-25T07:08:38.738Z,-3.40
2019-01-25T07:09:43.917Z,-3.40
2019-01-25T07:10:50.763Z,-3.30
2019-01-25T07:11:56.504Z,-3.40
2019-01-25T07:13:01.178Z,-3.40
2019-01-25T07:14:06.137Z,-3.40
2019-01-25T07:15:11.614Z,-3.40
2019-01-25T07:16:16.316Z,-3.40
2019-01-25T07:17:21.735Z,-3.30
2019-01-25T07:18:26.685Z,-3.30
2019-01-25T07:19:31.324Z,-3.30
2019-01-25T07:20:36.982Z,-3.30
2019-01-25T07:21:42.972Z,-3.30
2019-01-25T07:22:47.741Z,-3.30
2019-01-25T07:23:52.672Z,-3.30
2019-01-25T07:24:57.564Z,-3.40
2019-01-25T07:26:02.698Z,-3.30
2019-01-25T07:27:07.433Z,-3.30
2019-01-25T07:28:12.526Z,-3.30
2019-01-25T07:29:17.785Z,-3.30
2019-01-25T07:30:23.001Z,-3.30
2019-01-25T07:31:27.797Z,-3.30
2019-01-25T07:32:32.404Z,-3.30
2019-01-25T07:33:37.158Z,-3.30
2019-01-25T07:34:41.848Z,-3.30
2019-01-25T07:35:46.776Z,-3.30
2019-01-25T07:36:52.326Z,-3.30
2019-01-25T07:37:57.092Z,-3.20
2019-01-25T07:39:08.345Z,-3.20
2019-01-25T07:40:13.220Z,-3.20
2019-01-25T07:41:18.365Z,-3.20
2019-01-25T07:42:23.103Z,-3.20
2019-01-25T07:43:27.900Z,-3.20
2019-01-25T07:44:32.584Z,-3.20
2019-01-25T07:45:37.273Z,-3.30
2019-01-25T07:46:42.966Z,-3.30
2019-01-25T07:47:47.770Z,-3.30
2019-01-25T07:48:52.668Z,-3.40
2019-01-25T07:49:58.495Z,-3.40
2019-01-25T07:51:03.160Z,-3.40
2019-01-25T07:52:07.980Z,-3.40
2019-01-25T07:53:12.743Z,-3.40
2019-01-25T07:54:17.468Z,-3.40
2019-01-25T07:55:22.190Z,-3.40
2019-01-25T07:56:26.820Z,-3.40
2019-01-25T07:57:31.511Z,-3.40
2019-01-25T07:58:36.309Z,-3.40
2019-01-25T07:59:41.301Z,-3.40
2019-01-25T08:00:46.242Z,-3.40
2019-01-25T08:01:50.815Z,-3.40
2019-01-25T08:02:55.693Z,-3.40
2019-01-25T08:04:00.407Z,-3.40
2019-01-25T08:05:06.091Z,-3.40
2019-01-25T08:06:10.772Z,-3.30
2019-01-25T08:07:15.533Z,-3.30
2019-01-25T08:08:20.301Z,-3.30
2019-01-25T08:09:24.912Z,-3.30
2019-01-25T08:10:29.537Z,-3.30
2019-01-25T08:11:34.177Z,-3.30
2019-01-25T08:12:38.924Z,-3.40
2019-01-25T08:13:43.572Z,-3.40
2019-01-25T08:14:48.255Z,-3.40
2019-01-25T08:15:53.024Z,-3.40
2019-01-25T08:16:57.635Z,-3.40
2019-01-25T08:18:02.354Z,-3.40
2019-01-25T08:19:07.030Z,-3.40
2019-01-25T08:20:12.209Z,-3.40
2019-01-25T08:21:17.014Z,-3.40
2019-01-25T08:22:21.722Z,-3.40
2019-01-25T08:23:26.350Z,-3.40
2019-01-25T08:24:31.137Z,-3.40
2019-01-25T08:25:36.353Z,-3.40
2019-01-25T08:26:41.046Z,-3.30
2019-01-25T08:27:45.703Z,-3.30
2019-01-25T08:28:52.530Z,-3.30
2019-01-25T08:29:57.147Z,-3.30
2019-01-25T08:31:01.911Z,-3.30
2019-01-25T08:32:06.570Z,-3.30
2019-01-25T08:33:11.289Z,-3.30
2019-01-25T08:34:15.952Z,-3.30
2019-01-25T08:35:21.859Z,-3.30
2019-01-25T08:36:26.532Z,-3.30
2019-01-25T08:37:31.240Z,-3.30
2019-01-25T08:38:36.090Z,-3.30
2019-01-25T08:39:40.836Z,-3.30
2019-01-25T08:40:45.524Z,-3.30
2019-01-25T08:41:50.357Z,-3.30
2019-01-25T08:42:54.973Z,-3.30
2019-01-25T08:43:59.666Z,-3.40
2019-01-25T08:45:04.959Z,-3.40
2019-01-25T08:46:09.758Z,-3.40
2019-01-25T08:47:14.508Z,-3.40
2019-01-25T08:48:19.181Z,-3.40
2019-01-25T08:49:23.869Z,-3.30
2019-01-25T08:50:30.906Z,-3.30
2019-01-25T08:51:35.552Z,-3.30
2019-01-25T08:52:40.609Z,-3.20
2019-01-25T08:53:45.483Z,-3.20
2019-01-25T08:54:52.872Z,-3.20
2019-01-25T08:55:57.841Z,-3.20
2019-01-25T08:57:02.847Z,-3.20
2019-01-25T08:58:07.654Z,-3.20
2019-01-25T08:59:12.490Z,-3.20
2019-01-25T09:00:19.285Z,-3.10
2019-01-25T09:01:24.093Z,-3.10
2019-01-25T09:02:40.467Z,-3.10
2019-01-25T09:03:49.101Z,-3.10
2019-01-25T09:04:59.842Z,-3.20
2019-01-25T09:06:10.868Z,-3.20
2019-01-25T09:07:15.586Z,-3.10
2019-01-25T09:08:22.567Z,-3.20
2019-01-25T09:09:29.475Z,-3.20
2019-01-25T09:10:37.822Z,-3.10
2019-01-25T09:11:42.609Z,-3.10
2019-01-25T09:12:47.388Z,-3.00
2019-01-25T09:13:54.882Z,-3.00
2019-01-25T09:14:59.805Z,-3.00
2019-01-25T09:16:05.437Z,-3.00
2019-01-25T09:17:10.186Z,-3.00
2019-01-25T09:18:15.903Z,-3.00
2019-01-25T09:19:20.787Z,-3.00
2019-01-25T09:20:28.310Z,-2.90
2019-01-25T09:21:33.037Z,-2.90
2019-01-25T09:22:38.081Z,-2.90
2019-01-25T09:23:42.887Z,-2.90
2019-01-25T09:24:47.549Z,-2.90
2019-01-25T09:25:52.136Z,-2.90
2019-01-25T09:26:57.581Z,-2.90
2019-01-25T09:28:02.542Z,-2.80
2019-01-25T09:29:07.193Z,-2.80
2019-01-25T09:30:14.713Z,-2.80
2019-01-25T09:31:20.219Z,-2.80
2019-01-25T09:32:24.979Z,-2.80
2019-01-25T09:33:29.814Z,-2.80
2019-01-25T09:34:35.808Z,-2.70
2019-01-25T09:35:40.474Z,-2.70
2019-01-25T09:36:45.092Z,-2.70
2019-01-25T09:37:50.220Z,-2.70
2019-01-25T09:38:54.932Z,-2.60
2019-01-25T09:39:59.691Z,-2.50
2019-01-25T09:41:04.441Z,-2.50
2019-01-25T09:42:09.443Z,-2.40
2019-01-25T09:43:14.115Z,-2.40
2019-01-25T09:44:18.782Z,-2.30
2019-01-25T09:45:23.654Z,-2.20
2019-01-25T09:46:28.259Z,-2.10
2019-01-25T09:47:32.906Z,-2.00
2019-01-25T09:48:37.664Z,-1.90
2019-01-25T09:49:42.425Z,-1.80
2019-01-25T09:50:52.739Z,-1.80
2019-01-25T09:51:53.490Z,-1.80
2019-01-25T09:52:58.267Z,-1.70
2019-01-25T09:54:02.986Z,-1.60
2019-01-25T09:55:10.109Z,-1.50
2019-01-25T09:56:14.791Z,-1.40
2019-01-25T09:57:19.432Z,-1.30
2019-01-25T09:58:24.864Z,-1.30
2019-01-25T09:59:29.516Z,-1.20
2019-01-25T10:00:38.030Z,-1.30
2019-01-25T10:01:42.659Z,-1.30
2019-01-25T10:02:47.580Z,-1.30
2019-01-25T10:03:52.353Z,-1.30
2019-01-25T10:04:57.006Z,-1.40
2019-01-25T10:06:02.086Z,-1.40
2019-01-25T10:07:06.931Z,-1.40
2019-01-25T10:08:11.817Z,-1.40
2019-01-25T10:09:16.518Z,-1.30
2019-01-25T10:10:21.970Z,-1.40
2019-01-25T10:11:26.599Z,-1.40
2019-01-25T10:12:36.050Z,-1.40
2019-01-25T10:13:37.820Z,-1.50
2019-01-25T10:14:42.713Z,-1.50
2019-01-25T10:15:47.641Z,-1.60
2019-01-25T10:16:52.398Z,-1.60
2019-01-25T10:17:57.293Z,-1.60
2019-01-25T10:19:02.061Z,-1.60
2019-01-25T10:20:07.565Z,-1.60
2019-01-25T10:21:12.352Z,-1.70
2019-01-25T10:22:17.059Z,-1.70
2019-01-25T10:23:21.689Z,-1.80
2019-01-25T10:24:26.382Z,-1.80
2019-01-25T10:25:31.111Z,-1.80
2019-01-25T10:26:35.866Z,-1.80
2019-01-25T10:27:40.818Z,-1.90
2019-01-25T10:28:45.667Z,-1.80
2019-01-25T10:29:50.761Z,-1.80
2019-01-25T10:30:55.438Z,-1.80
2019-01-25T10:32:01.649Z,-1.70
2019-01-25T10:33:06.575Z,-1.60
2019-01-25T10:34:12.342Z,-1.60
2019-01-25T10:35:17.114Z,-1.50
2019-01-25T10:36:23.387Z,-1.40
2019-01-25T10:37:28.019Z,-1.40
2019-01-25T10:38:32.675Z,-1.40
2019-01-25T10:39:37.254Z,-1.40
2019-01-25T10:40:41.873Z,-1.40
2019-01-25T10:41:46.582Z,-1.40
2019-01-25T10:42:53.388Z,-1.40
2019-01-25T10:43:57.862Z,-1.40
2019-01-25T10:45:04.379Z,-1.40
2019-01-25T10:46:09.045Z,-1.40
2019-01-25T10:47:13.656Z,-1.40
2019-01-25T10:48:18.287Z,-1.50
2019-01-25T10:49:22.907Z,-1.50
2019-01-25T10:50:28.090Z,-1.50
2019-01-25T10:51:32.715Z,-1.60
2019-01-25T10:52:37.287Z,-1.60
2019-01-25T10:53:41.866Z,-1.60
2019-01-25T10:54:48.124Z,-1.50
2019-01-25T10:55:52.749Z,-1.60
2019-01-25T10:56:57.402Z,-1.60
2019-01-25T10:58:02.115Z,-1.50
2019-01-25T10:59:06.743Z,-1.50
2019-01-25T11:00:14.560Z,-1.50
2019-01-25T11:01:19.179Z,-1.50
2019-01-25T11:02:23.895Z,-1.50
2019-01-25T11:03:28.935Z,-1.50
2019-01-25T11:04:33.519Z,-1.60
2019-01-25T11:05:39.214Z,-1.60
2019-01-25T11:06:45.256Z,-1.60
2019-01-25T11:07:50.177Z,-1.60
2019-01-25T11:08:54.775Z,-1.60
2019-01-25T11:09:59.529Z,-1.60
2019-01-25T11:11:04.481Z,-1.60
2019-01-25T11:12:09.231Z,-1.60
2019-01-25T11:13:13.884Z,-1.70
2019-01-25T11:14:18.852Z,-1.70
2019-01-25T11:15:23.892Z,-1.80
2019-01-25T11:16:28.585Z,-1.80
2019-01-25T11:17:36.467Z,-1.80
2019-01-25T11:18:39.683Z,-1.80
2019-01-25T11:19:44.295Z,-1.70
2019-01-25T11:20:49.035Z,-1.70
2019-01-25T11:21:53.627Z,-1.70
2019-01-25T11:22:58.247Z,-1.60
2019-01-25T11:24:07.682Z,-1.60
2019-01-25T11:25:12.581Z,-1.60
2019-01-25T11:26:17.195Z,-1.60
2019-01-25T11:27:21.898Z,-1.50
2019-01-25T11:28:26.518Z,-1.60
2019-01-25T11:29:31.084Z,-1.60
2019-01-25T11:30:35.769Z,-1.60
2019-01-25T11:31:41.377Z,-1.60
2019-01-25T11:32:46.439Z,-1.50
2019-01-25T11:33:51.075Z,-1.50
2019-01-25T11:34:55.808Z,-1.50
2019-01-25T11:36:00.715Z,-1.50
2019-01-25T11:37:05.452Z,-1.50
2019-01-25T11:38:10.232Z,-1.50
2019-01-25T11:39:15.085Z,-1.50
2019-01-25T11:40:22.290Z,-1.40
2019-01-25T11:41:26.870Z,-1.40
2019-01-25T11:42:31.529Z,-1.40
2019-01-25T11:43:36.201Z,-1.50
2019-01-25T11:44:40.806Z,-1.50
2019-01-25T11:45:46.092Z,-1.50
2019-01-25T11:46:50.663Z,-1.50
2019-01-25T11:47:55.367Z,-1.50
2019-01-25T11:48:59.957Z,-1.60
2019-01-25T11:50:05.751Z,-1.60
2019-01-25T11:51:10.483Z,-1.60
2019-01-25T11:52:15.130Z,-1.70
2019-01-25T11:53:19.757Z,-1.70
2019-01-25T11:54:24.443Z,-1.70
2019-01-25T11:55:29.000Z,-1.70
2019-01-25T11:56:33.774Z,-1.70
2019-01-25T11:57:38.405Z,-1.80
2019-01-25T11:58:43.555Z,-1.80
2019-01-25T11:59:48.272Z,-1.80
2019-01-25T12:00:53.214Z,-1.70
2019-01-25T12:01:57.822Z,-1.70
2019-01-25T12:03:02.410Z,-1.70
2019-01-25T12:04:07.600Z,-1.70
2019-01-25T12:05:13.574Z,-1.70
2019-01-25T12:06:18.265Z,-1.60
2019-01-25T12:07:22.916Z,-1.60
2019-01-25T12:08:27.602Z,-1.60
2019-01-25T12:09:32.260Z,-1.50
2019-01-25T12:10:37.005Z,-1.50
2019-01-25T12:11:41.681Z,-1.40
2019-01-25T12:12:46.367Z,-1.40
2019-01-25T12:13:50.983Z,-1.30
2019-01-25T12:14:55.810Z,-1.30
2019-01-25T12:16:00.732Z,-1.30
2019-01-25T12:17:05.426Z,-1.20
2019-01-25T12:18:10.253Z,-1.10
2019-01-25T12:19:14.840Z,-1.10
2019-01-25T12:20:24.635Z,-1.10
2019-01-25T12:21:29.368Z,-1.10
2019-01-25T12:22:34.104Z,-1.10
2019-01-25T12:23:38.856Z,-1.10
2019-01-25T12:24:43.528Z,-1.20
2019-01-25T12:25:48.120Z,-1.10
2019-01-25T12:26:52.724Z,-1.10
2019-01-25T12:27:57.657Z,-1.10
2019-01-25T12:29:02.367Z,-1.20
2019-01-25T12:30:12.408Z,-1.20
2019-01-25T12:31:17.305Z,-1.20
2019-01-25T12:32:22.429Z,-1.20
2019-01-25T12:33:27.126Z,-1.20
2019-01-25T12:34:31.706Z,-1.20
2019-01-25T12:35:38.747Z,-1.20
2019-01-25T12:36:43.314Z,-1.20
2019-01-25T12:37:47.906Z,-1.20
2019-01-25T12:38:52.566Z,-1.20
2019-01-25T12:39:57.194Z,-1.20
2019-01-25T12:41:01.846Z,-1.20
2019-01-25T12:42:06.692Z,-1.30
2019-01-25T12:43:11.586Z,-1.30
2019-01-25T12:44:16.291Z,-1.30
2019-01-25T12:45:22.925Z,-1.30
2019-01-25T12:46:27.613Z,-1.30
2019-01-25T12:47:32.226Z,-1.40
2019-01-25T12:48:36.871Z,-1.30
2019-01-25T12:49:41.470Z,-1.40
2019-01-25T12:50:50.711Z,-1.40
2019-01-25T12:52:01.551Z,-1.40
2019-01-25T12:53:06.986Z,-1.50
2019-01-25T12:54:11.666Z,-1.50
2019-01-25T12:55:16.438Z,-1.60
2019-01-25T12:56:21.103Z,-1.60
2019-01-25T12:57:25.706Z,-1.60
2019-01-25T12:58:30.980Z,-1.60
2019-01-25T12:59:35.722Z,-1.70
2019-01-25T13:00:41.971Z,-1.80
2019-01-25T13:01:46.662Z,-1.80
2019-01-25T13:02:51.597Z,-1.80
2019-01-25T13:03:57.176Z,-1.90
2019-01-25T13:05:02.977Z,-1.80
2019-01-25T13:06:08.641Z,-1.80
2019-01-25T13:07:13.458Z,-1.80
2019-01-25T13:08:18.266Z,-1.90
2019-01-25T13:09:23.097Z,-1.90
2019-01-25T13:10:27.976Z,-1.80
2019-01-25T13:11:32.559Z,-1.80
2019-01-25T13:12:37.243Z,-1.80
2019-01-25T13:13:41.934Z,-1.80
2019-01-25T13:14:46.682Z,-1.90
2019-01-25T13:15:51.470Z,-1.90
2019-01-25T13:16:56.131Z,-1.90
2019-01-25T13:18:01.057Z,-2.00
2019-01-25T13:19:05.949Z,-2.00
2019-01-25T13:20:14.368Z,-2.00
2019-01-25T13:21:19.040Z,-2.00
2019-01-25T13:22:23.730Z,-1.90
2019-01-25T13:23:28.434Z,-1.90
2019-01-25T13:24:33.130Z,-1.90
2019-01-25T13:25:37.978Z,-1.90
2019-01-25T13:26:45.618Z,-1.80
2019-01-25T13:27:52.489Z,-1.80
2019-01-25T13:28:57.260Z,-1.90
2019-01-25T13:30:01.955Z,-1.90
2019-01-25T13:31:06.950Z,-1.90
2019-01-25T13:32:14.517Z,-1.90
2019-01-25T13:33:18.144Z,-1.90
2019-01-25T13:34:22.793Z,-1.90
2019-01-25T13:35:27.554Z,-1.80
2019-01-25T13:36:32.227Z,-1.90
2019-01-25T13:37:36.937Z,-1.90
2019-01-25T13:38:41.618Z,-1.90
2019-01-25T13:39:46.429Z,-1.90
2019-01-25T13:40:51.099Z,-1.90
2019-01-25T13:41:55.860Z,-1.80
2019-01-25T13:43:00.578Z,-1.80
2019-01-25T13:44:05.409Z,-1.80
2019-01-25T13:45:11.740Z,-1.70
2019-01-25T13:46:16.368Z,-1.80
2019-01-25T13:47:21.029Z,-1.70
2019-01-25T13:48:26.689Z,-1.70
2019-01-25T13:49:31.301Z,-1.70
2019-01-25T13:50:35.925Z,-1.70
2019-01-25T13:51:40.670Z,-1.70
2019-01-25T13:52:45.555Z,-1.70
2019-01-25T13:53:50.252Z,-1.70
2019-01-25T13:54:55.052Z,-1.70
2019-01-25T13:55:59.803Z,-1.70
2019-01-25T13:57:05.447Z,-1.80
2019-01-25T13:58:10.062Z,-1.70
2019-01-25T13:59:14.643Z,-1.80
2019-01-25T14:00:31.519Z,-1.80
2019-01-25T14:01:36.128Z,-1.90